createdAt,value
2022-12-01T00:02:08.539Z,80.36
2022-12-01T00:04:35.399Z,79.25
2022-12-01T00:07:02.488Z,80.99
2022-12-01T00:09:48.019Z,80.41
2022-12-01T00:12:14.905Z,80.67
2022-12-01T00:14:41.537Z,79.57
2022-12-01T00:17:08.299Z,80.06
2022-12-01T00:19:35.061Z,80.04
2022-12-01T00:22:01.995Z,80.66
2022-12-01T00:24:28.664Z,79.28
2022-12-01T00:26:55.324Z,80.22
2022-12-01T00:29:22.013Z,81.96
2022-12-01T00:31:48.764Z,82.33
2022-12-01T00:34:22.687Z,82.80
2022-12-01T00:36:49.352Z,81.31
2022-12-01T00:39:16.170Z,79.71
2022-12-01T00:41:42.865Z,81.92
2022-12-01T00:44:09.537Z,80.01
2022-12-01T00:46:36.390Z,78.16
2022-12-01T00:49:03.208Z,76.70
2022-12-01T00:51:30.087Z,77.52
2022-12-01T00:53:56.823Z,78.77
2022-12-01T00:56:23.602Z,76.46
2022-12-01T00:58:50.310Z,75.12
2022-12-01T01:01:17.183Z,75.37
2022-12-01T01:03:43.972Z,76.08
2022-12-01T01:06:12.093Z,77.27
2022-12-01T01:08:39.209Z,79.66
2022-12-01T01:11:07.036Z,78.65
2022-12-01T01:13:34.653Z,76.08
2022-12-01T01:16:05.862Z,75.07
2022-12-01T01:18:32.887Z,75.69
2022-12-01T01:21:01.190Z,75.20
2022-12-01T01:23:28.044Z,74.54
2022-12-01T01:25:54.824Z,74.97
2022-12-01T01:28:21.643Z,73.25
2022-12-01T01:30:48.381Z,73.03
2022-12-01T01:33:15.183Z,72.71
2022-12-01T01:35:42.008Z,72.83
2022-12-01T01:38:08.720Z,73.69
2022-12-01T01:40:35.379Z,73.20
2022-12-01T01:43:02.128Z,72.69
2022-12-01T01:45:29.718Z,72.25
2022-12-01T01:48:00.014Z,72.55
2022-12-01T01:50:28.435Z,72.30
2022-12-01T01:53:08.946Z,71.96
2022-12-01T01:55:36.324Z,71.18
2022-12-01T01:58:05.307Z,71.05
2022-12-01T02:00:32.087Z,70.95
2022-12-01T02:02:59.765Z,70.98
2022-12-01T02:05:31.765Z,70.83
2022-12-01T02:07:59.774Z,70.40
2022-12-01T02:10:49.828Z,69.78
2022-12-01T02:13:24.457Z,70.48
2022-12-01T02:16:01.993Z,70.53
2022-12-01T02:18:42.746Z,70.59
2022-12-01T02:21:21.739Z,70.60
2022-12-01T02:24:06.732Z,70.96
2022-12-01T02:26:36.453Z,70.34
2022-12-01T02:29:06.260Z,70.78
2022-12-01T02:31:39.162Z,70.33
2022-12-01T02:34:13.792Z,70.48
2022-12-01T02:36:51.370Z,72.16
2022-12-01T02:39:39.753Z,72.81
2022-12-01T02:42:34.620Z,71.05
2022-12-01T02:45:03.857Z,70.82
2022-12-01T02:47:31.427Z,71.02
2022-12-01T02:49:59.247Z,71.29
2022-12-01T02:52:27.281Z,71.29
2022-12-01T02:54:54.108Z,71.17
2022-12-01T02:57:24.449Z,71.05
2022-12-01T02:59:53.504Z,71.09
2022-12-01T03:02:24.802Z,70.78
2022-12-01T03:04:54.352Z,70.49
2022-12-01T03:07:35.744Z,70.49
2022-12-01T03:10:05.611Z,70.33
2022-12-01T03:12:32.262Z,75.59
2022-12-01T03:15:21.720Z,73.09
2022-12-01T03:18:01.541Z,73.54
2022-12-01T03:20:34.367Z,73.27
2022-12-01T03:23:04.950Z,71.02
2022-12-01T03:25:32.285Z,73.88
2022-12-01T03:28:20.841Z,72.46
2022-12-01T03:30:48.963Z,71.40
2022-12-01T03:33:19.462Z,69.80
2022-12-01T03:35:52.000Z,72.30
2022-12-01T03:38:22.068Z,72.11
2022-12-01T03:40:49.896Z,71.07
2022-12-01T03:43:20.090Z,70.86
2022-12-01T03:45:57.240Z,69.72
2022-12-01T03:48:24.620Z,68.33
2022-12-01T03:50:54.091Z,67.57
2022-12-01T03:53:27.652Z,67.29
2022-12-01T03:56:15.293Z,67.65
2022-12-01T03:58:45.652Z,68.61
2022-12-01T04:01:12.610Z,68.11
2022-12-01T04:03:39.469Z,67.89
2022-12-01T04:06:06.328Z,67.82
2022-12-01T04:08:34.051Z,67.49
2022-12-01T04:11:00.832Z,66.59
2022-12-01T04:13:27.580Z,67.65
2022-12-01T04:15:54.705Z,67.69
2022-12-01T04:18:21.544Z,67.34
2022-12-01T04:20:48.985Z,67.04
2022-12-01T04:23:35.641Z,66.92
2022-12-01T04:26:04.680Z,67.76
2022-12-01T04:28:31.629Z,68.00
2022-12-01T04:30:58.515Z,67.39
2022-12-01T04:33:25.399Z,67.11
2022-12-01T04:35:59.265Z,67.99
2022-12-01T04:38:30.472Z,68.01
2022-12-01T04:40:57.826Z,67.67
2022-12-01T04:43:24.578Z,67.50
2022-12-01T04:45:51.315Z,68.01
2022-12-01T04:48:18.085Z,67.05
2022-12-01T04:50:44.740Z,66.60
2022-12-01T04:53:11.516Z,70.17
2022-12-01T04:55:39.485Z,69.35
2022-12-01T04:58:06.366Z,69.38
2022-12-01T05:00:33.756Z,68.19
2022-12-01T05:03:00.798Z,70.53
2022-12-01T05:05:27.931Z,72.21
2022-12-01T05:07:54.857Z,73.42
2022-12-01T05:10:21.880Z,71.35
2022-12-01T05:12:48.613Z,71.68
2022-12-01T05:15:15.600Z,71.69
2022-12-01T05:17:42.318Z,70.26
2022-12-01T05:20:27.995Z,72.32
2022-12-01T05:23:05.441Z,69.90
2022-12-01T05:25:33.597Z,71.04
2022-12-01T05:28:00.358Z,69.03
2022-12-01T05:30:28.903Z,70.61
2022-12-01T05:32:55.954Z,70.15
2022-12-01T05:35:22.828Z,71.66
2022-12-01T05:37:49.516Z,69.49
2022-12-01T05:40:16.309Z,69.32
2022-12-01T05:42:43.018Z,68.93
2022-12-01T05:45:09.998Z,71.03
2022-12-01T05:47:36.707Z,69.76
2022-12-01T05:50:08.236Z,70.55
2022-12-01T05:52:35.606Z,70.23
2022-12-01T05:55:05.757Z,67.42
2022-12-01T05:57:33.271Z,68.02
2022-12-01T06:00:00.091Z,70.49
2022-12-01T06:02:29.816Z,68.31
2022-12-01T06:04:56.642Z,69.51
2022-12-01T06:07:25.424Z,70.64
2022-12-01T06:09:52.775Z,69.65
2022-12-01T06:12:19.921Z,69.89
2022-12-01T06:14:46.654Z,70.96
2022-12-01T06:17:13.421Z,71.54
2022-12-01T06:19:40.086Z,70.99
2022-12-01T06:22:06.903Z,73.18
2022-12-01T06:24:33.636Z,73.17
2022-12-01T06:27:00.472Z,71.43
2022-12-01T06:29:27.476Z,71.84
2022-12-01T06:31:54.301Z,69.70
2022-12-01T06:34:21.218Z,74.71
2022-12-01T06:36:48.014Z,75.89
2022-12-01T06:39:17.771Z,74.07
2022-12-01T06:41:44.542Z,73.49
2022-12-01T06:44:11.276Z,73.87
2022-12-01T06:46:38.228Z,72.75
2022-12-01T06:49:05.291Z,74.15
2022-12-01T06:51:34.425Z,72.77
2022-12-01T06:54:05.493Z,70.69
2022-12-01T06:56:32.550Z,71.80
2022-12-01T06:58:59.736Z,71.23
2022-12-01T07:01:26.927Z,69.65
2022-12-01T07:03:53.847Z,69.45
2022-12-01T07:06:20.666Z,71.41
2022-12-01T07:08:47.368Z,69.05
2022-12-01T07:11:15.143Z,71.79
2022-12-01T07:13:46.040Z,71.13
2022-12-01T07:16:15.711Z,70.48
2022-12-01T07:21:42.022Z,73.42
2022-12-01T07:24:19.112Z,73.52
2022-12-01T07:26:48.333Z,73.28
2022-12-01T07:29:16.613Z,73.56
2022-12-01T07:31:55.197Z,72.65
2022-12-01T07:34:56.900Z,70.86
2022-12-01T07:37:32.585Z,69.66
2022-12-01T07:39:59.459Z,72.32
2022-12-01T07:42:41.253Z,70.26
2022-12-01T07:45:13.156Z,69.72
2022-12-01T07:47:50.234Z,69.43
2022-12-01T07:50:17.540Z,67.96
2022-12-01T07:53:05.740Z,68.29
2022-12-01T07:55:35.192Z,69.90
2022-12-01T07:58:04.435Z,70.61
2022-12-01T08:00:33.561Z,71.11
2022-12-01T08:03:03.918Z,71.95
2022-12-01T08:05:44.065Z,71.13
2022-12-01T08:11:14.985Z,71.66
2022-12-01T08:13:42.128Z,69.45
2022-12-01T08:16:10.266Z,71.39
2022-12-01T08:18:40.033Z,70.57
2022-12-01T08:21:07.711Z,71.84
2022-12-01T08:23:35.878Z,70.14
2022-12-01T08:26:08.407Z,69.63
2022-12-01T08:28:36.439Z,68.83
2022-12-01T08:31:10.224Z,68.29
2022-12-01T08:33:37.214Z,70.07
2022-12-01T08:36:05.082Z,70.19
2022-12-01T08:38:33.245Z,71.35
2022-12-01T08:41:01.018Z,70.89
2022-12-01T08:43:55.998Z,68.67
2022-12-01T08:46:16.944Z,66.73
2022-12-01T08:48:43.752Z,69.22
2022-12-01T08:51:14.883Z,68.22
2022-12-01T08:53:45.601Z,68.74
2022-12-01T08:56:20.993Z,68.94
2022-12-01T08:58:49.765Z,69.87
2022-12-01T09:01:19.645Z,67.66
2022-12-01T09:03:47.939Z,68.16
2022-12-01T09:06:20.570Z,69.19
2022-12-01T09:08:47.636Z,69.24
2022-12-01T09:11:15.913Z,69.26
2022-12-01T09:13:43.325Z,70.29
2022-12-01T09:16:14.616Z,69.67
2022-12-01T09:18:42.256Z,68.33
2022-12-01T09:21:17.296Z,66.84
2022-12-01T09:23:44.609Z,67.94
2022-12-01T09:26:20.344Z,68.06
2022-12-01T09:28:47.996Z,68.44
2022-12-01T09:31:19.215Z,67.86
2022-12-01T09:33:46.471Z,67.15
2022-12-01T09:36:23.955Z,65.95
2022-12-01T09:38:51.988Z,65.48
2022-12-01T09:41:43.580Z,63.79
2022-12-01T09:44:17.506Z,65.65
2022-12-01T09:46:50.380Z,63.07
2022-12-01T09:49:30.156Z,62.03
2022-12-01T09:52:10.233Z,61.39
2022-12-01T09:54:37.291Z,62.29
2022-12-01T09:57:04.136Z,61.34
2022-12-01T09:59:37.903Z,61.85
2022-12-01T10:02:13.751Z,60.69
2022-12-01T10:04:45.139Z,61.13
2022-12-01T10:07:11.991Z,60.69
2022-12-01T10:09:38.819Z,60.21
2022-12-01T10:12:14.309Z,61.82
2022-12-01T10:14:41.541Z,61.15
2022-12-01T10:17:17.402Z,60.80
2022-12-01T10:20:03.122Z,61.42
2022-12-01T10:22:48.546Z,63.41
2022-12-01T10:25:22.110Z,61.26
2022-12-01T10:27:48.873Z,62.05
2022-12-01T10:30:17.550Z,62.06
2022-12-01T10:32:58.542Z,60.86
2022-12-01T10:35:39.897Z,61.24
2022-12-01T10:38:16.343Z,61.15
2022-12-01T10:40:43.379Z,61.34
2022-12-01T10:43:10.236Z,61.55
2022-12-01T10:45:56.929Z,59.95
2022-12-01T10:48:23.833Z,60.89
2022-12-01T10:51:06.312Z,59.76
2022-12-01T10:53:36.519Z,60.71
2022-12-01T10:56:07.681Z,60.43
2022-12-01T10:58:41.401Z,60.08
2022-12-01T11:01:16.050Z,60.45
2022-12-01T11:03:46.329Z,59.65
2022-12-01T11:06:23.586Z,59.01
2022-12-01T11:08:55.551Z,59.46
2022-12-01T11:11:22.312Z,61.12
2022-12-01T11:13:49.214Z,60.26
2022-12-01T11:16:34.466Z,59.87
2022-12-01T11:19:26.919Z,59.32
2022-12-01T11:21:58.951Z,60.69
2022-12-01T11:24:30.261Z,60.54
2022-12-01T11:26:59.189Z,59.78
2022-12-01T11:29:29.161Z,58.47
2022-12-01T11:31:57.241Z,58.54
2022-12-01T11:34:39.162Z,61.76
2022-12-01T11:37:18.516Z,61.40
2022-12-01T11:39:51.658Z,60.73
2022-12-01T11:42:27.070Z,61.11
2022-12-01T11:45:28.021Z,61.73
2022-12-01T11:48:09.932Z,61.06
2022-12-01T11:50:41.586Z,61.38
2022-12-01T11:53:36.785Z,60.91
2022-12-01T11:59:15.723Z,61.94
2022-12-01T12:01:57.394Z,61.63
2022-12-01T12:04:43.587Z,61.85
2022-12-01T12:08:05.036Z,61.49
2022-12-01T12:11:03.097Z,61.93
2022-12-01T12:13:47.128Z,60.76
2022-12-01T12:16:33.743Z,61.58
2022-12-01T12:20:06.708Z,60.05
2022-12-01T12:25:26.067Z,60.96
2022-12-01T12:27:57.727Z,60.88
2022-12-01T12:30:45.903Z,59.40
2022-12-01T12:33:14.496Z,59.40
2022-12-01T12:35:41.245Z,58.59
2022-12-01T12:38:35.847Z,59.80
2022-12-01T12:41:13.833Z,59.22
2022-12-01T12:43:43.694Z,57.37
2022-12-01T12:46:12.092Z,58.40
2022-12-01T12:48:57.287Z,59.29
2022-12-01T12:51:31.906Z,59.31
2022-12-01T12:54:21.034Z,58.46
2022-12-01T12:56:49.844Z,58.34
2022-12-01T12:59:32.548Z,57.62
2022-12-01T13:02:09.234Z,57.80
2022-12-01T13:04:59.522Z,58.71
2022-12-01T13:07:35.635Z,56.73
2022-12-01T13:10:10.390Z,56.58
2022-12-01T13:12:39.219Z,57.61
2022-12-01T13:15:16.310Z,59.48
2022-12-01T13:17:45.669Z,57.93
2022-12-01T13:20:14.575Z,58.00
2022-12-01T13:22:41.933Z,58.56
2022-12-01T13:25:08.764Z,57.91
2022-12-01T13:27:37.193Z,58.44
2022-12-01T13:30:08.686Z,58.68
2022-12-01T13:32:37.178Z,58.15
2022-12-01T13:35:08.438Z,59.15
2022-12-01T13:37:37.136Z,59.35
2022-12-01T13:40:10.736Z,59.02
2022-12-01T13:42:40.439Z,59.76
2022-12-01T13:45:20.322Z,59.86
2022-12-01T13:47:49.584Z,59.98
2022-12-01T13:50:35.048Z,60.41
2022-12-01T13:53:10.405Z,61.80
2022-12-01T13:55:54.946Z,59.93
2022-12-01T13:58:28.943Z,61.54
2022-12-01T14:01:15.926Z,61.63
2022-12-01T14:03:51.943Z,61.81
2022-12-01T14:06:21.941Z,61.17
2022-12-01T14:08:50.283Z,62.72
2022-12-01T14:11:20.868Z,60.96
2022-12-01T14:14:01.447Z,61.37
2022-12-01T14:16:48.383Z,60.95
2022-12-01T14:19:35.307Z,62.08
2022-12-01T14:22:02.650Z,61.10
2022-12-01T14:24:42.554Z,61.56
2022-12-01T14:27:12.088Z,61.03
2022-12-01T14:29:40.191Z,61.06
2022-12-01T14:32:09.768Z,61.94
2022-12-01T14:34:39.707Z,61.82
2022-12-01T14:37:11.826Z,62.20
2022-12-01T14:39:41.072Z,62.34
2022-12-01T14:42:10.574Z,61.91
2022-12-01T14:44:43.409Z,62.48
2022-12-01T14:47:31.274Z,61.93
2022-12-01T14:50:13.201Z,61.29
2022-12-01T14:53:06.138Z,61.27
2022-12-01T14:55:45.289Z,60.63
2022-12-01T14:58:24.519Z,60.74
2022-12-01T15:00:59.304Z,60.82
2022-12-01T15:03:31.977Z,60.83
2022-12-01T15:05:59.638Z,61.12
2022-12-01T15:08:53.308Z,61.36
2022-12-01T15:11:24.687Z,61.34
2022-12-01T15:13:53.265Z,61.09
2022-12-01T15:16:21.554Z,64.92
2022-12-01T15:18:48.827Z,63.41
2022-12-01T15:21:20.945Z,62.27
2022-12-01T15:23:53.879Z,62.46
2022-12-01T15:26:21.341Z,61.94
2022-12-01T15:28:48.362Z,61.61
2022-12-01T15:31:15.265Z,61.38
2022-12-01T15:33:50.791Z,61.73
2022-12-01T15:36:17.875Z,62.00
2022-12-01T15:38:46.315Z,61.47
2022-12-01T15:41:29.054Z,63.68
2022-12-01T15:44:02.263Z,63.14
2022-12-01T15:46:34.491Z,64.20
2022-12-01T15:49:18.230Z,64.92
2022-12-01T15:51:45.637Z,64.65
2022-12-01T15:54:20.525Z,64.59
2022-12-01T15:56:51.615Z,64.63
2022-12-01T15:59:26.605Z,64.55
2022-12-01T16:01:53.599Z,64.51
2022-12-01T16:04:24.642Z,64.30
2022-12-01T16:07:11.687Z,63.59
2022-12-01T16:09:39.401Z,63.26
2022-12-01T16:12:07.594Z,63.51
2022-12-01T16:14:34.815Z,64.29
2022-12-01T16:17:01.998Z,64.04
2022-12-01T16:19:32.611Z,64.04
2022-12-01T16:21:59.310Z,63.98
2022-12-01T16:24:31.113Z,63.67
2022-12-01T16:27:05.392Z,63.13
2022-12-01T16:29:35.351Z,62.80
2022-12-01T16:32:22.903Z,62.71
2022-12-01T16:34:50.666Z,62.42
2022-12-01T16:37:17.546Z,63.04
2022-12-01T16:39:44.346Z,63.58
2022-12-01T16:42:12.362Z,63.74
2022-12-01T16:44:39.210Z,63.51
2022-12-01T16:47:32.601Z,63.70
2022-12-01T16:49:59.289Z,63.47
2022-12-01T16:55:27.688Z,63.47
2022-12-01T16:57:55.688Z,63.53
2022-12-01T17:00:22.865Z,64.02
2022-12-01T17:02:49.780Z,63.63
2022-12-01T17:05:16.718Z,63.17
2022-12-01T17:07:43.566Z,62.79
2022-12-01T17:10:10.615Z,63.34
2022-12-01T17:12:37.329Z,64.22
2022-12-01T17:15:04.711Z,65.40
2022-12-01T17:17:31.391Z,65.55
2022-12-01T17:19:58.229Z,65.88
2022-12-01T17:22:25.152Z,65.56
2022-12-01T17:24:53.932Z,66.20
2022-12-01T17:27:20.668Z,65.45
2022-12-01T17:29:47.469Z,65.13
2022-12-01T17:32:14.779Z,65.03
2022-12-01T17:34:41.494Z,64.61
2022-12-01T17:37:08.318Z,64.41
2022-12-01T17:39:35.041Z,64.22
2022-12-01T17:42:01.734Z,64.59
2022-12-01T17:44:28.715Z,64.54
2022-12-01T17:46:55.563Z,64.26
2022-12-01T17:49:22.783Z,64.12
2022-12-01T17:51:49.647Z,63.78
2022-12-01T17:54:16.760Z,63.48
2022-12-01T17:56:43.639Z,63.54
2022-12-01T17:59:10.362Z,63.32
2022-12-01T18:01:37.245Z,62.75
2022-12-01T18:04:04.054Z,63.02
2022-12-01T18:06:30.805Z,62.27
2022-12-01T18:08:59.146Z,62.22
2022-12-01T18:11:25.954Z,62.17
2022-12-01T18:13:52.830Z,62.38
2022-12-01T18:16:26.555Z,63.04
2022-12-01T18:18:53.809Z,63.43
2022-12-01T18:21:22.813Z,64.26
2022-12-01T18:23:54.814Z,63.97
2022-12-01T18:26:22.520Z,64.04
2022-12-01T18:28:56.348Z,64.00
2022-12-01T18:31:23.616Z,63.62
2022-12-01T18:33:50.400Z,64.76
2022-12-01T18:36:24.534Z,64.62
2022-12-01T18:38:52.155Z,64.39
2022-12-01T18:41:19.283Z,64.51
2022-12-01T18:43:46.312Z,64.28
2022-12-01T18:46:14.243Z,65.21
2022-12-01T18:48:48.216Z,64.72
2022-12-01T18:51:15.452Z,64.95
2022-12-01T18:53:42.503Z,65.26
2022-12-01T18:56:11.680Z,64.81
2022-12-01T18:58:39.425Z,64.71
2022-12-01T19:01:17.658Z,64.62
2022-12-01T19:03:44.472Z,65.34
2022-12-01T19:06:13.035Z,65.23
2022-12-01T19:08:40.065Z,64.99
2022-12-01T19:11:07.218Z,64.86
2022-12-01T19:13:34.418Z,65.44
2022-12-01T19:16:05.922Z,64.91
2022-12-01T19:18:32.657Z,64.21
2022-12-01T19:21:03.425Z,63.92
2022-12-01T19:23:30.259Z,63.63
2022-12-01T19:25:57.421Z,64.03
2022-12-01T19:28:24.267Z,64.30
2022-12-01T19:30:51.222Z,64.73
2022-12-01T19:33:17.973Z,64.75
2022-12-01T19:35:44.803Z,64.96
2022-12-01T19:38:11.784Z,65.31
2022-12-01T19:40:38.892Z,65.08
2022-12-01T19:43:05.652Z,65.27
2022-12-01T19:45:33.723Z,65.09
2022-12-01T19:48:00.700Z,64.58
2022-12-01T19:50:27.495Z,64.17
2022-12-01T19:52:54.447Z,65.13
2022-12-01T19:55:21.201Z,64.54
2022-12-01T19:57:52.069Z,64.28
2022-12-01T20:00:19.268Z,64.30
2022-12-01T20:02:46.039Z,64.29
2022-12-01T20:05:12.840Z,64.54
2022-12-01T20:07:39.707Z,64.89
2022-12-01T20:10:06.677Z,64.60
2022-12-01T20:12:34.861Z,64.85
2022-12-01T20:15:02.105Z,65.92
2022-12-01T20:17:30.046Z,68.25
2022-12-01T20:19:56.721Z,66.27
2022-12-01T20:22:23.527Z,68.29
2022-12-01T20:24:50.811Z,69.00
2022-12-01T20:27:17.722Z,71.28
2022-12-01T20:29:44.428Z,70.83
2022-12-01T20:32:11.390Z,71.10
2022-12-01T20:34:40.257Z,70.33
2022-12-01T20:37:07.282Z,70.94
2022-12-01T20:39:37.071Z,72.08
2022-12-01T20:42:04.404Z,71.17
2022-12-01T20:44:31.243Z,71.89
2022-12-01T20:46:58.008Z,72.28
2022-12-01T20:49:24.735Z,71.83
2022-12-01T20:51:51.416Z,72.09
2022-12-01T20:54:27.766Z,71.48
2022-12-01T20:56:55.378Z,71.91
2022-12-01T20:59:22.136Z,71.74
2022-12-01T21:01:48.915Z,70.63
2022-12-01T21:04:15.736Z,69.59
2022-12-01T21:06:42.563Z,69.88
2022-12-01T21:09:09.373Z,69.83
2022-12-01T21:12:08.462Z,69.71
2022-12-01T21:14:41.694Z,70.20
2022-12-01T21:17:14.335Z,70.80
2022-12-01T21:19:53.910Z,72.48
2022-12-01T21:22:20.687Z,69.91
2022-12-01T21:24:50.027Z,71.41
2022-12-01T21:27:18.160Z,70.87
2022-12-01T21:29:46.277Z,71.14
2022-12-01T21:32:17.400Z,70.46
2022-12-01T21:34:45.568Z,70.55
2022-12-01T21:37:22.756Z,69.44
2022-12-01T21:39:55.096Z,71.35
2022-12-01T21:42:23.082Z,70.68
2022-12-01T21:44:50.131Z,70.57
2022-12-01T21:47:20.055Z,69.85
2022-12-01T21:49:48.387Z,69.24
2022-12-01T21:52:18.198Z,68.70
2022-12-01T21:54:45.116Z,69.11
2022-12-01T21:57:27.575Z,69.99
2022-12-01T21:59:58.050Z,70.00
2022-12-01T22:02:30.526Z,68.84
2022-12-01T22:04:59.494Z,68.97
2022-12-01T22:07:27.202Z,68.93
2022-12-01T22:09:54.376Z,69.42
2022-12-01T22:12:26.437Z,68.59
2022-12-01T22:14:54.007Z,68.77
2022-12-01T22:17:21.352Z,70.83
2022-12-01T22:20:08.318Z,69.73
2022-12-01T22:22:36.058Z,70.30
2022-12-01T22:25:21.679Z,69.27
2022-12-01T22:27:48.327Z,69.37
2022-12-01T22:30:22.015Z,70.42
2022-12-01T22:33:03.924Z,69.75
2022-12-01T22:35:36.514Z,72.08
2022-12-01T22:38:06.219Z,69.11
2022-12-01T22:40:48.528Z,71.57
2022-12-01T22:43:18.311Z,70.58
2022-12-01T22:45:48.084Z,70.44
2022-12-01T22:48:33.511Z,70.50
2022-12-01T22:51:23.311Z,71.75
2022-12-01T22:53:51.929Z,70.41
2022-12-01T22:56:26.558Z,70.19
2022-12-01T22:58:53.499Z,70.70
2022-12-01T23:01:30.460Z,69.10
2022-12-01T23:04:12.311Z,70.29
2022-12-01T23:06:53.124Z,71.95
2022-12-01T23:09:20.493Z,69.49
2022-12-01T23:11:58.730Z,69.89
2022-12-01T23:14:25.635Z,69.98
2022-12-01T23:16:57.537Z,69.71
2022-12-01T23:19:25.404Z,68.72
2022-12-01T23:21:52.602Z,69.58
2022-12-01T23:24:19.455Z,69.28
2022-12-01T23:26:47.386Z,70.23
2022-12-01T23:29:14.280Z,71.70
2022-12-01T23:31:41.387Z,70.00
2022-12-01T23:34:14.127Z,69.47
2022-12-01T23:36:41.095Z,69.32
2022-12-01T23:39:11.302Z,68.96
2022-12-01T23:41:41.626Z,68.44
2022-12-01T23:44:17.560Z,67.79
2022-12-01T23:46:44.506Z,67.38
2022-12-01T23:49:13.582Z,69.67
2022-12-01T23:51:44.488Z,68.20
2022-12-01T23:54:14.294Z,69.03
2022-12-01T23:56:41.112Z,70.07
2022-12-01T23:59:12.692Z,70.02
